Hales Corners, WI (53130)

12:49 AM CDT on August 04, 2015 (GMT -0500)
Foxwood Crossing | | Change Station
CLOSE
Current Station
Personal Weather Station
Location: Greenfield, WI
Elevation: 830 ft
Nearby Weather Stations

Elev 830 ft 42.96 °N, 88.06 °W | Updated 16 minutes ago

Clear
Clear
65.3 °F
Feels Like 65.3 °F
N
1.0
Wind Variable Wind from West
Gusts 2.0 mph

Today
High -- | Low -- °F
--% Chance of Precip.
Yesterday
High -- | Low -- °F
Precip. -- in
5:46 AM 8:09 PM
Waning Gibbous, 81% visible
Pressure 29.89 in
Visibility 10.0 miles
Clouds Few 7000 ft
Dew Point 54 °F
Humidity 66%
Rainfall 0.00 in
Snow Depth Not available.
UV 0 out of 12
Pollen 6.70 out of 12
Air Quality Not available.
Flu Activity Not available.
METAR KMKE 040452Z 31005KT 10SM FEW070 22/10 A2990 RMK AO2 SLP121 T02170100

More Conditions Fewer Conditions

Pressure 29.89 in
Visibility 10.0 miles
Clouds Few 7000 ft
Dew Point 54 °F
Humidity 66%
Rainfall 0.00 in
Snow Depth Not available.
UV 0 out of 12
Pollen 6.70 out of 12
Air Quality Not available.
Flu Activity Not available.
METAR KMKE 040452Z 31005KT 10SM FEW070 22/10 A2990 RMK AO2 SLP121 T02170100

More Conditions Fewer Conditions

10-Day Weather Forecast

×

Almanac

Astronomy

Aug. 04, 2015 Rise Set
Actual Time
Civil Twilight
Nautical Twilight
Astronomical Twilight
Moon
Length of Visible Light
Length of Day
Tomorrow will be .
, % of the Moon is Illuminated

Today's Extremes

State Highs State Lows

Community

WunderPhotos

Upload Photos

1,843,870 photos uploaded!

WunderBlogs® & News

Nearby

Air Quality

  Air Quality AQ Index Pollutant
Not available.

Snow Depth

Station Depth Elevation

Earthquake Activity

City Distance Mag. Time & Date
Minimum magnitude displayed is 2.5.

Coastal Water Temperatures

Place Temperature

Stations

Nearby Weather Stations

Station Location Temp. Windchill Dew Point Humidity Wind Precip. Elev Updated Type